Time;durP1;ratioP1;P1;durP2;ratioP2;P2;SDS_P1;SDS_P2;PMS_P1;PMS_P2;Temp;Humidity;BMP_temperature;BMP_pressure;BME280_temperature;BME280_humidity;BME280_pressure;Samples;Min_cycle;Max_cycle;Signal;HPM_P1;HPM_P2
2022/05/03 00:01:51;;;;;;;3.03;2.83;;;20.00;1.00;;;;;;5052266;28;20386;-64
2022/05/03 00:04:36;;;;;;;4.72;3.30;;;20.00;1.00;;;;;;5052223;28;20040;-65
2022/05/03 00:07:17;;;;;;;5.95;3.90;;;20.00;1.00;;;;;;5052576;28;20079;-64
2022/05/03 00:10:05;;;;;;;4.13;3.50;;;19.80;1.00;;;;;;5052165;28;20032;-64
2022/05/03 00:12:52;;;;;;;6.22;3.42;;;19.80;1.00;;;;;;5052690;28;20028;-64
2022/05/03 00:15:21;;;;;;;4.90;3.85;;;19.80;1.00;;;;;;5051950;28;20078;-64
2022/05/03 00:17:48;;;;;;;3.92;3.30;;;19.80;1.00;;;;;;5052515;28;20390;-64
2022/05/03 00:20:14;;;;;;;4.00;3.60;;;19.80;1.00;;;;;;5051639;28;20364;-64
2022/05/03 00:22:40;;;;;;;3.67;3.38;;;19.60;1.00;;;;;;5052423;28;20474;-64
2022/05/03 00:25:06;;;;;;;4.57;4.07;;;19.60;1.00;;;;;;5052130;28;20367;-64
2022/05/03 00:27:33;;;;;;;4.32;3.40;;;19.60;1.00;;;;;;5043281;28;20089;-64
2022/05/03 00:29:59;;;;;;;3.92;3.50;;;19.60;1.00;;;;;;5042594;28;20048;-64
2022/05/03 00:32:26;;;;;;;5.25;2.97;;;19.70;1.00;;;;;;5052220;28;20091;-65
2022/05/03 00:34:53;;;;;;;2.83;2.63;;;19.70;1.00;;;;;;5049782;28;20025;-65
2022/05/03 00:37:19;;;;;;;3.85;3.00;;;19.70;1.00;;;;;;5067794;28;20351;-65
2022/05/03 00:39:44;;;;;;;2.95;2.60;;;19.70;1.00;;;;;;5051515;28;20021;-65
2022/05/03 00:42:20;;;;;;;4.13;2.47;;;19.70;1.00;;;;;;5051896;28;20123;-64
2022/05/03 00:45:00;;;;;;;3.20;2.78;;;19.70;1.00;;;;;;5051776;28;20098;-65
2022/05/03 00:47:41;;;;;;;3.65;2.90;;;19.60;1.00;;;;;;5051580;28;20048;-64
2022/05/03 00:50:18;;;;;;;3.38;2.47;;;19.70;1.00;;;;;;5051820;28;20090;-64
2022/05/03 00:53:00;;;;;;;2.80;2.60;;;19.60;1.00;;;;;;5052264;28;20037;-64
2022/05/03 00:55:53;;;;;;;2.00;1.90;;;19.50;1.00;;;;;;5051735;28;20386;-64
2022/05/03 00:58:49;;;;;;;2.30;2.10;;;19.40;1.00;;;;;;5052233;28;20036;-64
2022/05/03 01:01:45;;;;;;;4.47;2.10;;;19.50;1.00;;;;;;5052112;28;20029;-64
2022/05/03 01:04:19;;;;;;;2.15;1.95;;;19.40;1.00;;;;;;5050656;28;20075;-64
2022/05/03 01:07:00;;;;;;;4.05;1.92;;;19.50;1.00;;;;;;5052026;28;20075;-64
2022/05/03 01:09:39;;;;;;;2.22;1.90;;;19.50;1.00;;;;;;5051556;28;20064;-64
2022/05/03 01:12:29;;;;;;;2.97;2.20;;;19.50;1.00;;;;;;5051592;28;20029;-64
2022/05/03 01:15:10;;;;;;;2.85;1.88;;;19.50;1.00;;;;;;5044448;28;20466;-64
2022/05/03 01:17:57;;;;;;;1.77;1.67;;;19.50;1.00;;;;;;5050615;28;20102;-64
2022/05/03 01:20:51;;;;;;;2.63;1.90;;;19.50;1.00;;;;;;5050433;28;20033;-65
2022/05/03 01:23:35;;;;;;;3.33;1.90;;;19.40;1.00;;;;;;5051360;28;20127;-64
2022/05/03 01:26:24;;;;;;;2.80;2.38;;;19.40;1.00;;;;;;5050865;28;20029;-64
2022/05/03 01:29:18;;;;;;;2.40;2.20;;;19.40;1.00;;;;;;5052304;28;20060;-64
2022/05/03 01:31:45;;;;;;;5.03;2.10;;;19.30;1.00;;;;;;5038152;28;20041;-64
2022/05/03 01:34:13;;;;;;;1.90;1.52;;;19.40;1.00;;;;;;5050806;28;20466;-64
2022/05/03 01:37:00;;;;;;;2.90;1.48;;;19.40;1.00;;;;;;5051830;28;20017;-64
2022/05/03 01:39:26;;;;;;;2.50;1.65;;;19.50;1.00;;;;;;5050805;28;20035;-64
2022/05/03 01:42:00;;;;;;;2.17;1.95;;;19.40;1.00;;;;;;5051547;28;20021;-63
2022/05/03 01:44:50;;;;;;;4.30;2.00;;;19.50;1.00;;;;;;5051200;28;20041;-64
2022/05/03 01:47:18;;;;;;;4.20;2.00;;;19.40;1.00;;;;;;5055325;28;20153;-64
2022/05/03 01:50:19;;;;;;;2.22;1.80;;;19.40;1.00;;;;;;5054386;28;20112;-64
2022/05/03 01:53:15;;;;;;;2.30;1.90;;;19.40;1.00;;;;;;5054009;28;20132;-64
2022/05/03 01:55:53;;;;;;;1.60;1.35;;;19.50;1.00;;;;;;5054425;28;20474;-64
2022/05/03 01:58:54;;;;;;;2.70;1.77;;;19.50;1.00;;;;;;5054706;28;20446;-64
2022/05/03 02:01:41;;;;;;;3.42;1.60;;;19.40;1.00;;;;;;5051428;28;20025;-64
2022/05/03 02:04:37;;;;;;;1.88;1.70;;;19.40;1.00;;;;;;5052538;28;20109;-66
2022/05/03 02:07:24;;;;;;;3.70;2.00;;;19.50;1.00;;;;;;5035149;28;20108;-64
2022/05/03 02:10:17;;;;;;;1.77;1.67;;;19.30;1.00;;;;;;5042826;28;20132;-64
2022/05/03 02:12:53;;;;;;;4.60;1.65;;;19.30;1.00;;;;;;5054057;28;20058;-64
2022/05/03 02:15:39;;;;;;;2.22;1.80;;;19.20;1.00;;;;;;5054203;28;20025;-63
2022/05/03 02:18:37;;;;;;;4.30;1.90;;;19.20;1.00;;;;;;5054708;28;20040;-64
2022/05/03 02:21:27;;;;;;;1.70;1.60;;;19.20;1.00;;;;;;5053848;28;20078;-64
2022/05/03 02:23:58;;;;;;;1.70;1.60;;;19.20;1.00;;;;;;5055013;28;20029;-65
2022/05/03 02:26:36;;;;;;;2.30;1.42;;;19.30;1.00;;;;;;5052352;28;20502;-64
2022/05/03 02:29:13;;;;;;;3.78;1.73;;;19.30;1.00;;;;;;5040651;28;20128;-64
2022/05/03 02:31:46;;;;;;;2.35;1.58;;;19.40;1.00;;;;;;5052373;28;20041;-64
2022/05/03 02:34:40;;;;;;;1.33;1.23;;;19.20;1.00;;;;;;5054755;28;20079;-64
2022/05/03 02:37:16;;;;;;;1.70;1.48;;;19.20;1.00;;;;;;5049963;28;20128;-64
2022/05/03 02:40:08;;;;;;;1.83;1.73;;;19.10;1.00;;;;;;5043366;28;20022;-64
2022/05/03 02:42:35;;;;;;;1.27;1.17;;;19.20;1.00;;;;;;5053078;28;20445;-64
2022/05/03 02:45:03;;;;;;;1.10;1.00;;;19.20;1.00;;;;;;5049552;28;20049;-64
2022/05/03 02:47:38;;;;;;;2.50;1.33;;;19.30;1.00;;;;;;5043116;28;20120;-64
2022/05/03 02:50:18;;;;;;;3.55;1.25;;;19.10;1.00;;;;;;5046336;28;20044;-64
2022/05/03 02:52:52;;;;;;;1.20;1.08;;;19.20;1.00;;;;;;5068583;28;20036;-64
2022/05/03 02:55:45;;;;;;;3.55;1.35;;;19.00;1.00;;;;;;5052782;28;20029;-64
2022/05/03 02:58:33;;;;;;;1.13;0.98;;;19.10;1.00;;;;;;5051894;28;20056;-64
2022/05/03 03:04:08;;;;;;;3.55;1.30;;;18.90;1.00;;;;;;5053203;28;20506;-64
2022/05/03 03:06:38;;;;;;;3.50;1.35;;;18.90;1.00;;;;;;5052261;28;20074;-64
2022/05/03 03:09:06;;;;;;;2.10;1.40;;;18.90;1.00;;;;;;5053915;28;20025;-63
2022/05/03 03:11:34;;;;;;;1.58;1.48;;;18.90;1.00;;;;;;5052709;28;20037;-64
2022/05/03 03:14:12;;;;;;;2.30;1.55;;;18.80;1.00;;;;;;5053649;28;20025;-64
2022/05/03 03:16:46;;;;;;;2.30;1.30;;;18.80;1.00;;;;;;5052213;28;20108;-64
2022/05/03 03:19:37;;;;;;;1.58;1.48;;;18.80;1.00;;;;;;5053307;28;20027;-64
2022/05/03 03:22:08;;;;;;;2.17;1.52;;;18.80;1.00;;;;;;5052613;28;20513;-64
2022/05/03 03:24:36;;;;;;;2.38;1.55;;;18.80;1.00;;;;;;5053780;28;20063;-63
2022/05/03 03:27:02;;;;;;;3.50;1.65;;;18.80;1.00;;;;;;5051737;28;20820;-63
2022/05/03 03:29:31;;;;;;;5.43;1.90;;;18.80;1.00;;;;;;5053145;28;20096;-65
2022/05/03 03:31:59;;;;;;;1.50;1.40;;;18.80;1.00;;;;;;5052460;28;20056;-64
2022/05/03 03:34:25;;;;;;;2.60;1.48;;;18.80;1.00;;;;;;5053577;28;20045;-64
2022/05/03 03:37:01;;;;;;;2.00;1.60;;;18.70;1.00;;;;;;5048361;28;20397;-64
2022/05/03 03:39:30;;;;;;;2.40;1.40;;;18.70;1.00;;;;;;5053497;28;20086;-64
2022/05/03 03:42:04;;;;;;;1.92;1.65;;;18.70;1.00;;;;;;5066400;28;20035;-63
2022/05/03 03:44:33;;;;;;;3.00;1.70;;;18.70;1.00;;;;;;5050844;28;20419;-64
2022/05/03 03:47:00;;;;;;;2.78;1.52;;;18.70;1.00;;;;;;5053169;28;20248;-64
2022/05/03 03:49:29;;;;;;;2.20;1.55;;;18.70;1.00;;;;;;5052178;28;20029;-65
2022/05/03 03:51:57;;;;;;;2.30;2.10;;;18.60;1.00;;;;;;5053094;28;20074;-65
2022/05/03 03:54:24;;;;;;;3.72;2.05;;;18.70;1.00;;;;;;5051021;28;20477;-64
2022/05/03 03:56:52;;;;;;;2.95;1.98;;;18.60;1.00;;;;;;5051195;28;20021;-64
2022/05/03 03:59:19;;;;;;;3.38;1.67;;;18.60;1.00;;;;;;5052307;28;20482;-64
2022/05/03 04:01:45;;;;;;;2.15;1.80;;;18.50;1.00;;;;;;5053095;28;20513;-64
2022/05/03 04:04:12;;;;;;;2.47;1.85;;;18.50;1.00;;;;;;5052131;28;20104;-64
2022/05/03 04:06:38;;;;;;;4.10;1.80;;;18.50;1.00;;;;;;5052597;28;20036;-64
2022/05/03 04:09:04;;;;;;;2.63;1.90;;;18.50;1.00;;;;;;5066698;28;20390;-64
2022/05/03 04:11:44;;;;;;;4.25;2.10;;;18.50;1.00;;;;;;5052865;28;20040;-64
2022/05/03 04:14:11;;;;;;;2.97;1.90;;;18.50;1.00;;;;;;5052265;28;20033;-64
2022/05/03 04:16:36;;;;;;;3.47;2.42;;;18.50;1.00;;;;;;5052630;28;20029;-64
2022/05/03 04:19:02;;;;;;;3.40;2.00;;;18.50;1.00;;;;;;5050590;28;20059;-64
2022/05/03 04:21:28;;;;;;;2.97;2.25;;;18.50;1.00;;;;;;5052541;28;20024;-64
2022/05/03 04:23:54;;;;;;;2.22;2.03;;;18.50;1.00;;;;;;5051671;28;20115;-64
2022/05/03 04:26:19;;;;;;;2.90;1.85;;;18.40;1.00;;;;;;5051373;28;20044;-64
2022/05/03 04:28:45;;;;;;;4.53;2.30;;;18.40;1.00;;;;;;5066030;28;20482;-64
2022/05/03 04:31:11;;;;;;;2.95;2.05;;;18.30;1.00;;;;;;5052629;28;20035;-64
2022/05/03 04:33:37;;;;;;;3.92;2.38;;;18.50;1.00;;;;;;5051511;28;20055;-64
2022/05/03 04:36:04;;;;;;;3.03;2.10;;;18.40;1.00;;;;;;5067892;28;20025;-64
2022/05/03 04:38:30;;;;;;;2.53;2.30;;;18.50;1.00;;;;;;5051447;28;20064;-64
2022/05/03 04:41:00;;;;;;;2.58;2.38;;;18.50;1.00;;;;;;5052330;28;20513;-64
2022/05/03 04:43:26;;;;;;;3.45;2.25;;;18.50;1.00;;;;;;5051371;28;20059;-64
2022/05/03 04:45:51;;;;;;;2.30;1.90;;;18.50;1.00;;;;;;5052389;28;20033;-64
2022/05/03 04:48:17;;;;;;;2.13;1.95;;;18.50;1.00;;;;;;5046000;28;20487;-64
2022/05/03 04:50:43;;;;;;;3.22;2.00;;;18.60;1.00;;;;;;5035718;28;20082;-64
2022/05/03 04:53:09;;;;;;;4.18;1.92;;;18.50;1.00;;;;;;5051000;28;20151;-64
2022/05/03 04:55:39;;;;;;;2.88;1.98;;;18.40;1.00;;;;;;5052379;28;20055;-64
2022/05/03 04:58:05;;;;;;;3.35;2.10;;;18.50;1.00;;;;;;5050851;28;20025;-64
2022/05/03 05:00:31;;;;;;;3.97;2.17;;;18.50;1.00;;;;;;5052183;28;20029;-64
2022/05/03 05:02:56;;;;;;;3.75;2.17;;;18.60;1.00;;;;;;5051018;28;20021;-64
2022/05/03 05:05:22;;;;;;;2.33;2.00;;;18.60;1.00;;;;;;5067703;28;20478;-64
2022/05/03 05:07:48;;;;;;;3.47;1.88;;;18.60;1.00;;;;;;5052308;28;20390;-65
2022/05/03 05:10:27;;;;;;;5.18;1.95;;;18.70;1.00;;;;;;5050866;28;20037;-64
2022/05/03 05:12:56;;;;;;;3.35;2.35;;;18.70;1.00;;;;;;5067525;28;20582;-64
2022/05/03 05:15:25;;;;;;;3.65;2.10;;;18.70;1.00;;;;;;5051166;28;20073;-64
2022/05/03 05:17:55;;;;;;;3.55;2.17;;;18.60;1.00;;;;;;5052083;28;20048;-64
2022/05/03 05:20:22;;;;;;;4.80;2.30;;;18.70;1.00;;;;;;5051574;28;20510;-64
2022/05/03 05:22:48;;;;;;;4.82;2.20;;;18.70;1.00;;;;;;5056158;28;20393;-64
2022/05/03 05:25:13;;;;;;;2.45;2.00;;;18.70;1.00;;;;;;5055265;28;20040;-64
2022/05/03 05:27:40;;;;;;;3.38;2.25;;;18.80;1.00;;;;;;5071543;28;20029;-64
2022/05/03 05:30:07;;;;;;;2.80;2.08;;;18.80;1.00;;;;;;5055248;28;20124;-64
2022/05/03 05:32:36;;;;;;;4.13;2.45;;;18.90;1.00;;;;;;5055909;28;20537;-64
2022/05/03 05:35:04;;;;;;;2.28;2.03;;;18.80;1.00;;;;;;5055011;28;20427;-64
2022/05/03 05:37:32;;;;;;;3.67;2.15;;;18.90;1.00;;;;;;5055196;28;20033;-64
2022/05/03 05:39:58;;;;;;;3.65;2.22;;;18.90;1.00;;;;;;5052165;28;20067;-64
2022/05/03 05:42:23;;;;;;;4.05;2.33;;;18.90;1.00;;;;;;5054384;28;20092;-64
2022/05/03 05:44:49;;;;;;;3.55;3.25;;;18.90;1.00;;;;;;5055137;28;20067;-64
2022/05/03 05:47:17;;;;;;;4.80;2.47;;;19.00;1.00;;;;;;5054843;28;20530;-65
2022/05/03 05:49:42;;;;;;;5.25;3.17;;;19.00;1.00;;;;;;5054620;28;20028;-65
2022/05/03 05:54:52;;;;;;;5.25;2.75;;;19.10;1.00;;;;;;5055064;28;20032;-65
2022/05/03 05:57:18;;;;;;;5.97;2.95;;;19.10;1.00;;;;;;5055152;28;20413;-65
2022/05/03 05:59:43;;;;;;;4.57;2.53;;;19.20;1.00;;;;;;5047930;28;20470;-65
2022/05/03 06:02:09;;;;;;;6.50;2.65;;;19.30;1.00;;;;;;5055403;28;20029;-65
2022/05/03 06:04:35;;;;;;;6.03;2.95;;;19.30;1.00;;;;;;5054457;28;20029;-65
2022/05/03 06:07:00;;;;;;;4.82;2.63;;;19.20;1.00;;;;;;5054974;28;20039;-65
2022/05/03 06:09:26;;;;;;;8.23;3.33;;;19.30;1.00;;;;;;5054397;28;20033;-65
2022/05/03 06:11:52;;;;;;;5.38;2.75;;;19.40;1.00;;;;;;5054857;28;20411;-64
2022/05/03 06:14:17;;;;;;;7.68;3.03;;;19.40;1.00;;;;;;5054194;28;20603;-64
2022/05/03 06:16:50;;;;;;;3.58;2.30;;;19.40;1.00;;;;;;5054145;28;20551;-64
2022/05/03 06:19:15;;;;;;;4.03;2.85;;;19.50;1.00;;;;;;5053785;28;20525;-65
2022/05/03 06:21:41;;;;;;;3.78;2.47;;;19.50;1.00;;;;;;5054986;28;20029;-64
2022/05/03 06:24:07;;;;;;;4.60;2.33;;;19.60;1.00;;;;;;5054259;28;20352;-65
2022/05/03 06:26:34;;;;;;;3.70;2.20;;;19.60;1.00;;;;;;5070287;28;20406;-64
2022/05/03 06:29:01;;;;;;;5.07;2.92;;;19.70;1.00;;;;;;5053980;28;20025;-65
2022/05/03 06:31:28;;;;;;;3.50;2.83;;;19.70;1.00;;;;;;5053701;28;20105;-65
2022/05/03 06:33:55;;;;;;;3.10;2.72;;;19.70;1.00;;;;;;5053546;28;20021;-65
2022/05/03 06:36:21;;;;;;;5.38;3.00;;;19.80;1.00;;;;;;5054587;28;20049;-65
2022/05/03 06:38:47;;;;;;;4.18;2.70;;;19.80;1.00;;;;;;5052698;28;20386;-64
2022/05/03 06:41:13;;;;;;;4.35;2.95;;;19.90;1.00;;;;;;5053300;28;20021;-65
2022/05/03 06:43:39;;;;;;;4.07;2.75;;;19.90;1.00;;;;;;5048424;28;20068;-64
2022/05/03 06:46:05;;;;;;;5.50;2.88;;;19.90;1.00;;;;;;5054150;28;20032;-64
2022/05/03 06:48:30;;;;;;;4.80;3.17;;;19.90;1.00;;;;;;5053007;28;20047;-63
2022/05/03 06:50:56;;;;;;;6.90;3.63;;;19.90;1.00;;;;;;5051709;28;20032;-64
2022/05/03 06:53:22;;;;;;;3.67;3.00;;;19.90;1.00;;;;;;5053387;28;20082;-64
2022/05/03 06:55:47;;;;;;;3.78;2.58;;;19.80;1.00;;;;;;5053978;28;20060;-64
2022/05/03 06:58:13;;;;;;;5.85;2.70;;;19.90;1.00;;;;;;5054285;28;20041;-63
2022/05/03 07:00:39;;;;;;;6.10;3.45;;;20.00;1.00;;;;;;5052877;28;20048;-64
2022/05/03 07:03:05;;;;;;;6.97;3.15;;;19.90;1.00;;;;;;5053955;28;20383;-64
2022/05/03 07:05:31;;;;;;;4.85;3.00;;;20.00;1.00;;;;;;5052970;28;20033;-64
2022/05/03 07:07:57;;;;;;;7.00;3.42;;;20.00;1.00;;;;;;5053922;28;20110;-64
2022/05/03 07:10:23;;;;;;;4.97;4.03;;;20.10;1.00;;;;;;5053415;28;20033;-64
2022/05/03 07:12:49;;;;;;;4.55;3.90;;;20.20;1.00;;;;;;5052001;28;20725;-64
2022/05/03 07:15:14;;;;;;;7.55;3.22;;;20.20;1.00;;;;;;5051908;28;20035;-64
2022/05/03 07:23:11;;;;;;;7.32;4.07;;;20.30;1.00;;;;;;5053472;28;20060;-64
2022/05/03 07:25:38;;;;;;;5.45;3.60;;;20.30;1.00;;;;;;5052415;28;20046;-64
2022/05/03 07:28:05;;;;;;;4.03;3.00;;;20.30;1.00;;;;;;5053064;28;20025;-64
2022/05/03 07:30:31;;;;;;;8.27;3.72;;;20.40;1.00;;;;;;5052509;28;20033;-64
2022/05/03 07:32:56;;;;;;;6.00;3.15;;;20.50;1.00;;;;;;5051400;28;20486;-65
2022/05/03 07:35:24;;;;;;;6.43;3.60;;;20.50;1.00;;;;;;5052292;28;20033;-64
2022/05/03 07:37:50;;;;;;;7.88;3.72;;;20.60;1.00;;;;;;5053042;28;20111;-65
2022/05/03 07:40:16;;;;;;;5.72;3.72;;;20.60;1.00;;;;;;5052557;28;20029;-64
2022/05/03 07:42:42;;;;;;;4.47;3.20;;;20.60;1.00;;;;;;5051383;28;20070;-65
2022/05/03 07:45:09;;;;;;;3.75;3.40;;;20.70;1.00;;;;;;5052592;28;20029;-65
2022/05/03 07:47:35;;;;;;;7.43;3.28;;;20.70;1.00;;;;;;5052988;28;20474;-63
2022/05/03 07:50:02;;;;;;;4.18;3.45;;;20.70;1.00;;;;;;5050966;28;20458;-64
2022/05/03 07:52:27;;;;;;;3.97;3.30;;;20.80;1.00;;;;;;5053040;28;20037;-64
2022/05/03 07:54:54;;;;;;;4.65;3.15;;;20.90;1.00;;;;;;5051417;28;20025;-65
2022/05/03 07:57:20;;;;;;;7.05;3.97;;;20.80;1.00;;;;;;5052783;28;20396;-64
2022/05/03 07:59:46;;;;;;;5.63;3.75;;;20.80;1.00;;;;;;5051148;28;20056;-64
2022/05/03 08:02:11;;;;;;;4.40;3.38;;;20.90;1.00;;;;;;5051395;28;20104;-64
2022/05/03 08:04:37;;;;;;;5.03;3.65;;;21.00;1.00;;;;;;5050513;28;20142;-65
2022/05/03 08:07:03;;;;;;;5.78;3.50;;;20.90;1.00;;;;;;5052487;28;20021;-64
2022/05/03 08:09:29;;;;;;;5.60;3.50;;;21.00;1.00;;;;;;5052665;28;20510;-64
2022/05/03 08:11:56;;;;;;;8.02;4.03;;;21.00;1.00;;;;;;5048609;28;20167;-64
2022/05/03 08:14:22;;;;;;;4.30;3.33;;;21.00;1.00;;;;;;5051103;28;20024;-65
2022/05/03 08:16:48;;;;;;;6.13;3.55;;;21.10;1.00;;;;;;5050378;28;20037;-65
2022/05/03 08:19:14;;;;;;;4.20;3.80;;;21.10;1.00;;;;;;5050196;28;20082;-63
2022/05/03 08:21:39;;;;;;;7.53;4.10;;;21.20;1.00;;;;;;5043132;28;20045;-64
2022/05/03 08:24:06;;;;;;;5.07;3.60;;;21.20;1.00;;;;;;5039293;28;20025;-65
2022/05/03 08:26:33;;;;;;;4.22;3.40;;;21.20;1.00;;;;;;5049026;28;20433;-64
2022/05/03 08:28:59;;;;;;;6.43;3.70;;;21.20;1.00;;;;;;5049634;28;20096;-65
2022/05/03 08:31:26;;;;;;;4.85;4.05;;;21.10;1.00;;;;;;5064966;28;20112;-64
2022/05/03 08:33:51;;;;;;;6.20;3.65;;;21.20;1.00;;;;;;5052268;28;20029;-64
2022/05/03 08:36:17;;;;;;;9.38;3.60;;;21.30;1.00;;;;;;5050991;28;20021;-64
2022/05/03 08:44:12;;;;;;;4.18;2.70;;;21.40;1.00;;;;;;5052344;28;20043;-64
2022/05/03 08:46:42;;;;;;;3.25;2.95;;;21.40;1.00;;;;;;5049804;28;20136;-64
2022/05/03 08:49:12;;;;;;;6.72;4.22;;;21.50;1.00;;;;;;5051949;28;20111;-64
2022/05/03 08:51:42;;;;;;;5.90;3.83;;;21.60;1.00;;;;;;5050561;28;20021;-64
2022/05/03 08:54:09;;;;;;;5.00;3.42;;;21.50;1.00;;;;;;5051687;28;20061;-65
2022/05/03 08:56:35;;;;;;;4.78;3.80;;;21.60;1.00;;;;;;5050618;28;20116;-64
2022/05/03 08:59:00;;;;;;;5.93;3.50;;;21.70;1.00;;;;;;5051183;28;20458;-65
2022/05/03 09:01:27;;;;;;;6.78;4.38;;;21.70;1.00;;;;;;5050325;28;20024;-64
2022/05/03 09:03:52;;;;;;;4.55;4.15;;;21.70;1.00;;;;;;5051119;28;20482;-65
2022/05/03 09:06:18;;;;;;;4.43;4.03;;;21.80;1.00;;;;;;5051091;28;20021;-65
2022/05/03 09:08:49;;;;;;;6.20;3.92;;;21.80;1.00;;;;;;5051882;28;20033;-65
2022/05/03 09:11:16;;;;;;;4.95;4.38;;;21.80;1.00;;;;;;5051283;28;20009;-65
2022/05/03 09:13:43;;;;;;;5.47;4.85;;;21.90;1.00;;;;;;5050799;28;20045;-65
2022/05/03 09:16:17;;;;;;;8.85;4.35;;;21.90;1.00;;;;;;5049189;28;20028;-65
2022/05/03 09:18:44;;;;;;;6.93;4.70;;;22.00;1.00;;;;;;5051186;28;20064;-65
2022/05/03 09:24:05;;;;;;;4.80;4.30;;;22.10;1.00;;;;;;5052143;28;20166;-65
2022/05/03 09:26:32;;;;;;;5.80;4.70;;;22.10;1.00;;;;;;5051185;28;20028;-65
2022/05/03 09:29:07;;;;;;;4.93;4.47;;;22.20;1.00;;;;;;5051700;28;20036;-65
2022/05/03 09:31:46;;;;;;;7.75;5.13;;;22.20;1.00;;;;;;5050352;28;20111;-65
2022/05/03 09:34:25;;;;;;;8.30;4.90;;;22.10;1.00;;;;;;5031876;28;20040;-65
2022/05/03 09:36:56;;;;;;;6.18;4.65;;;22.10;1.00;;;;;;5044440;28;20029;-65
2022/05/03 09:39:29;;;;;;;6.38;5.30;;;22.20;1.00;;;;;;5051572;28;20547;-65
2022/05/03 09:42:10;;;;;;;6.03;4.97;;;22.30;1.00;;;;;;5047475;28;20021;-65
2022/05/03 09:44:40;;;;;;;11.93;5.93;;;22.30;1.00;;;;;;5050150;28;20033;-65
2022/05/03 09:47:51;;;;;;;6.43;5.82;;;22.40;1.00;;;;;;5048578;28;20017;-65
2022/05/03 09:50:37;;;;;;;6.75;5.78;;;22.40;1.00;;;;;;5050289;28;20029;-65
2022/05/03 09:53:12;;;;;;;8.90;7.03;;;22.60;1.00;;;;;;5065046;28;20490;-65
2022/05/03 09:55:40;;;;;;;7.32;6.10;;;22.40;1.00;;;;;;5049008;28;20498;-65
2022/05/03 09:58:11;;;;;;;6.70;5.85;;;22.50;1.00;;;;;;5051356;28;20377;-65
2022/05/03 10:00:39;;;;;;;6.68;5.60;;;22.50;1.00;;;;;;5051090;28;20033;-65
2022/05/03 10:03:07;;;;;;;8.75;6.10;;;22.80;1.00;;;;;;5050889;28;20108;-65
2022/05/03 10:05:34;;;;;;;7.35;5.72;;;22.70;1.00;;;;;;5051480;28;20021;-65
2022/05/03 10:08:02;;;;;;;9.02;5.97;;;22.70;1.00;;;;;;5069314;28;20025;-65
2022/05/03 10:10:29;;;;;;;6.25;5.68;;;22.80;1.00;;;;;;5054876;28;20431;-64
2022/05/03 10:12:54;;;;;;;6.47;5.90;;;22.80;1.00;;;;;;5053570;28;20569;-64
2022/05/03 10:21:03;;;;;;;7.47;6.78;;;22.80;1.00;;;;;;5055039;28;20443;-65
2022/05/03 10:23:33;;;;;;;9.02;7.07;;;22.90;1.00;;;;;;5043473;28;20124;-64
2022/05/03 10:26:09;;;;;;;7.05;6.35;;;23.00;1.00;;;;;;5034594;28;20445;-64
2022/05/03 10:29:06;;;;;;;6.68;5.90;;;23.00;1.00;;;;;;5043748;28;20043;-64
2022/05/03 10:31:50;;;;;;;10.25;6.63;;;23.00;1.00;;;;;;5052298;28;20047;-64
2022/05/03 10:34:40;;;;;;;6.40;5.80;;;23.00;1.00;;;;;;5053943;28;20033;-64
2022/05/03 10:37:13;;;;;;;8.30;6.93;;;23.20;1.00;;;;;;5052418;28;20025;-64
2022/05/03 10:39:58;;;;;;;7.50;6.72;;;23.20;1.00;;;;;;5053619;28;20064;-65
2022/05/03 10:42:31;;;;;;;7.05;6.38;;;23.10;1.00;;;;;;5054433;28;20441;-64
2022/05/03 10:45:06;;;;;;;11.10;6.68;;;23.00;1.00;;;;;;5054153;28;20108;-65
2022/05/03 10:47:52;;;;;;;8.00;6.47;;;23.00;1.00;;;;;;5053377;28;20056;-64
2022/05/03 10:50:19;;;;;;;8.50;6.78;;;23.10;1.00;;;;;;5053776;28;20041;-65
2022/05/03 10:52:59;;;;;;;7.75;5.75;;;23.10;1.00;;;;;;5052485;28;20033;-65
2022/05/03 10:55:37;;;;;;;11.45;7.20;;;23.20;1.00;;;;;;5054310;28;20018;-65
2022/05/03 10:58:26;;;;;;;8.23;7.43;;;23.20;1.00;;;;;;5052436;28;20116;-65
2022/05/03 11:01:01;;;;;;;7.78;6.95;;;23.20;1.00;;;;;;5050459;28;20032;-65
2022/05/03 11:03:27;;;;;;;9.10;6.30;;;23.10;1.00;;;;;;5053180;28;20535;-65
2022/05/03 11:06:18;;;;;;;7.80;5.65;;;23.20;1.00;;;;;;5053681;28;20025;-65
2022/05/03 11:11:42;;;;;;;7.50;6.15;;;23.20;1.00;;;;;;5054403;28;20086;-65
2022/05/03 11:17:06;;;;;;;15.85;8.07;;;23.10;1.00;;;;;;5052829;28;20032;-66
2022/05/03 11:19:34;;;;;;;8.23;6.22;;;23.10;1.00;;;;;;5053310;28;20425;-65
2022/05/03 11:22:00;;;;;;;7.53;6.00;;;23.20;1.00;;;;;;5053268;28;20107;-65
2022/05/03 11:24:28;;;;;;;8.38;6.97;;;23.30;1.00;;;;;;5052786;28;20035;-65
2022/05/03 11:27:04;;;;;;;7.40;6.70;;;23.40;1.00;;;;;;5052434;28;20033;-65
2022/05/03 11:29:34;;;;;;;6.32;5.70;;;23.40;1.00;;;;;;5051953;28;20063;-65
2022/05/03 11:32:01;;;;;;;9.75;5.90;;;23.40;1.00;;;;;;5052656;28;20044;-65
2022/05/03 11:34:27;;;;;;;10.05;7.15;;;23.40;1.00;;;;;;5052596;28;20090;-65
2022/05/03 11:36:53;;;;;;;10.02;5.85;;;23.30;1.00;;;;;;5053408;28;20032;-65
2022/05/03 11:39:21;;;;;;;9.80;6.72;;;23.20;1.00;;;;;;5053013;28;20024;-65
2022/05/03 11:41:47;;;;;;;7.20;6.50;;;23.10;1.00;;;;;;5053083;28;20071;-64
2022/05/03 11:44:13;;;;;;;8.98;6.28;;;23.20;1.00;;;;;;5052277;28;20083;-65
2022/05/03 11:46:41;;;;;;;7.57;6.80;;;23.00;1.00;;;;;;5052990;28;20052;-65
2022/05/03 11:49:08;;;;;;;7.03;6.28;;;22.90;1.00;;;;;;5052301;28;20028;-66
2022/05/03 11:57:16;;;;;;;8.32;7.50;;;23.20;1.00;;;;;;5039780;28;20032;-66
2022/05/03 11:59:43;;;;;;;7.05;6.45;;;23.10;1.00;;;;;;5052415;28;20037;-66
2022/05/03 12:02:19;;;;;;;9.13;6.68;;;23.10;1.00;;;;;;5053041;28;20504;-66
2022/05/03 12:05:04;;;;;;;8.10;6.80;;;23.20;1.00;;;;;;5052268;28;20057;-66
2022/05/03 12:07:52;;;;;;;11.63;6.30;;;23.20;1.00;;;;;;5052942;28;20029;-66
2022/05/03 12:10:24;;;;;;;7.00;6.20;;;23.20;1.00;;;;;;5052395;28;20536;-66
2022/05/03 12:13:09;;;;;;;7.75;6.03;;;23.10;1.00;;;;;;5052503;28;20516;-64
2022/05/03 12:15:36;;;;;;;12.38;6.82;;;23.10;1.00;;;;;;5032864;28;20029;-66
2022/05/03 12:18:18;;;;;;;8.70;6.68;;;23.10;1.00;;;;;;5041048;28;20029;-65
2022/05/03 12:20:48;;;;;;;12.43;6.53;;;23.00;1.00;;;;;;5033146;28;20029;-66
2022/05/03 12:23:37;;;;;;;6.95;6.05;;;22.90;1.00;;;;;;5034187;28;20029;-65
2022/05/03 12:26:25;;;;;;;7.45;6.18;;;22.90;1.00;;;;;;5049574;28;20486;-66
2022/05/03 12:28:51;;;;;;;7.60;6.80;;;23.30;1.00;;;;;;5051256;28;20031;-66
2022/05/03 12:31:19;;;;;;;8.52;6.07;;;23.70;1.00;;;;;;5052615;28;20100;-66
2022/05/03 12:33:52;;;;;;;6.80;6.05;;;23.50;1.00;;;;;;5051236;28;20102;-66
2022/05/03 12:36:41;;;;;;;8.20;6.30;;;23.30;1.00;;;;;;5052703;28;20087;-66
2022/05/03 12:39:21;;;;;;;7.28;5.70;;;23.20;1.00;;;;;;5039146;28;20101;-66
2022/05/03 12:41:55;;;;;;;6.60;5.20;;;23.10;1.00;;;;;;5052113;28;20021;-65
2022/05/03 12:44:22;;;;;;;5.63;5.13;;;22.90;1.00;;;;;;5051598;28;20040;-66
2022/05/03 12:46:50;;;;;;;8.50;5.53;;;22.80;1.00;;;;;;5052335;28;20021;-66
2022/05/03 12:49:16;;;;;;;5.50;4.82;;;22.80;1.00;;;;;;5051586;28;20028;-66
2022/05/03 12:51:45;;;;;;;6.95;5.40;;;22.80;1.00;;;;;;5052142;28;20052;-66
2022/05/03 12:54:11;;;;;;;9.68;5.15;;;22.90;1.00;;;;;;5050509;28;20111;-66
2022/05/03 12:59:23;;;;;;;5.93;4.03;;;23.90;1.00;;;;;;5051585;28;20067;-66
2022/05/03 13:01:50;;;;;;;5.68;4.85;;;24.20;1.00;;;;;;5052494;28;20385;-66
2022/05/03 13:04:17;;;;;;;5.55;4.50;;;24.40;1.00;;;;;;5051277;28;20028;-66
2022/05/03 13:06:44;;;;;;;5.25;4.75;;;24.90;1.00;;;;;;5051933;28;20389;-66
2022/05/03 13:09:10;;;;;;;5.15;4.32;;;25.20;1.00;;;;;;5051158;28;20087;-66
2022/05/03 13:11:37;;;;;;;5.75;5.18;;;25.00;1.00;;;;;;5051981;28;20021;-66
2022/05/03 13:14:05;;;;;;;6.05;4.47;;;24.90;1.00;;;;;;5051225;28;20029;-66
2022/05/03 13:16:30;;;;;;;5.10;4.70;;;24.50;1.00;;;;;;5051223;28;20021;-66
2022/05/03 13:18:56;;;;;;;12.45;4.85;;;24.10;1.00;;;;;;5051106;28;20510;-66
2022/05/03 13:21:23;;;;;;;5.03;4.20;;;23.90;1.00;;;;;;5051175;28;20386;-66
2022/05/03 13:23:49;;;;;;;6.03;4.53;;;23.60;1.00;;;;;;5066350;28;20437;-66
2022/05/03 13:26:15;;;;;;;5.75;4.50;;;23.30;1.00;;;;;;5036145;28;20040;-66
2022/05/03 13:28:40;;;;;;;4.22;3.90;;;23.30;1.00;;;;;;5039873;28;20018;-66
2022/05/03 13:31:07;;;;;;;5.22;4.30;;;23.20;1.00;;;;;;5037803;28;20091;-66
2022/05/03 13:33:32;;;;;;;8.00;4.45;;;23.10;1.00;;;;;;5042590;28;20033;-66
2022/05/03 13:41:26;;;;;;;6.13;4.55;;;23.00;1.00;;;;;;5053616;28;20044;-66
2022/05/03 13:43:52;;;;;;;6.45;4.47;;;22.80;1.00;;;;;;5057606;28;20053;-65
2022/05/03 13:46:18;;;;;;;5.18;4.68;;;22.90;1.00;;;;;;5055108;28;20029;-66
2022/05/03 13:48:44;;;;;;;6.38;4.32;;;22.90;1.00;;;;;;5053836;28;20100;-66
2022/05/03 13:51:10;;;;;;;4.85;4.45;;;22.80;1.00;;;;;;5051395;28;20041;-66
2022/05/03 13:53:36;;;;;;;7.85;4.68;;;22.90;1.00;;;;;;5055309;28;20105;-66
2022/05/03 13:56:04;;;;;;;8.73;4.85;;;22.80;1.00;;;;;;5054227;28;20028;-66
2022/05/03 13:58:29;;;;;;;5.40;4.90;;;22.80;1.00;;;;;;5055517;28;20505;-66
2022/05/03 14:00:55;;;;;;;7.97;5.50;;;22.80;1.00;;;;;;5054163;28;20021;-66
2022/05/03 14:03:21;;;;;;;5.57;5.05;;;22.90;1.00;;;;;;5055223;28;20025;-66
2022/05/03 14:05:46;;;;;;;6.28;4.50;;;22.90;1.00;;;;;;5037894;28;20352;-66